createdAt,value
2019-02-08T00:00:36.569Z,51.77
2019-02-08T00:03:08.595Z,56.73
2019-02-08T00:05:40.109Z,53.03
2019-02-08T00:08:11.602Z,56.87
2019-02-08T00:10:43.412Z,53.63
2019-02-08T00:13:14.904Z,47.67
2019-02-08T00:15:46.403Z,56.13
2019-02-08T00:18:17.869Z,49.20
2019-02-08T00:20:49.337Z,57.33
2019-02-08T00:23:26.745Z,52.00
2019-02-08T00:25:54.906Z,52.30
2019-02-08T00:28:26.333Z,55.70
2019-02-08T00:30:57.813Z,49.97
2019-02-08T00:33:29.236Z,53.40
2019-02-08T00:36:00.634Z,49.80
2019-02-08T00:38:32.162Z,50.40
2019-02-08T00:41:03.757Z,52.40
2019-02-08T00:43:35.166Z,49.73
2019-02-08T00:46:06.688Z,52.53
2019-02-08T00:48:38.148Z,51.30
2019-02-08T00:51:09.636Z,48.87
2019-02-08T00:53:42.115Z,54.77
2019-02-08T00:56:13.884Z,55.27
2019-02-08T00:58:45.310Z,58.00
2019-02-08T01:01:16.823Z,57.90
2019-02-08T01:03:48.534Z,55.40
2019-02-08T01:06:19.997Z,58.00
2019-02-08T01:08:51.414Z,59.83
2019-02-08T01:11:22.811Z,59.43
2019-02-08T01:13:54.216Z,62.43
2019-02-08T01:16:25.621Z,57.30
2019-02-08T01:18:57.208Z,54.13
2019-02-08T01:21:28.767Z,51.17
2019-02-08T01:24:00.308Z,52.17
2019-02-08T01:26:31.853Z,63.97
2019-02-08T01:29:03.347Z,61.70
2019-02-08T01:31:34.733Z,58.70
2019-02-08T01:34:06.375Z,60.17
2019-02-08T01:36:37.873Z,56.70
2019-02-08T01:39:09.642Z,53.30
2019-02-08T01:41:41.177Z,54.33
2019-02-08T01:44:12.639Z,50.73
2019-02-08T01:46:44.045Z,51.47
2019-02-08T01:49:15.453Z,48.07
2019-02-08T01:51:46.871Z,51.63
2019-02-08T01:54:18.364Z,55.90
2019-02-08T01:56:50.019Z,51.73
2019-02-08T01:59:21.521Z,47.03
2019-02-08T02:01:52.942Z,49.07
2019-02-08T02:04:24.401Z,54.53
2019-02-08T02:06:55.902Z,53.43
2019-02-08T02:09:27.512Z,64.53
2019-02-08T02:11:59.118Z,51.87
2019-02-08T02:14:30.984Z,58.90
2019-02-08T02:17:02.539Z,60.23
2019-02-08T02:19:34.008Z,69.40
2019-02-08T02:22:05.659Z,57.30
2019-02-08T02:24:37.152Z,65.70
2019-02-08T02:27:08.567Z,61.40
2019-02-08T02:29:40.097Z,53.53
2019-02-08T02:32:11.554Z,67.00
2019-02-08T02:34:43.058Z,56.90
2019-02-08T02:37:14.507Z,55.57
2019-02-08T02:39:45.961Z,48.20
2019-02-08T02:42:17.437Z,52.27
2019-02-08T02:44:48.942Z,53.43
2019-02-08T02:47:20.443Z,61.03
2019-02-08T02:49:51.935Z,61.83
2019-02-08T02:52:23.362Z,55.33
2019-02-08T02:54:54.983Z,53.90
2019-02-08T02:57:26.507Z,53.53
2019-02-08T02:59:58.020Z,52.37
2019-02-08T03:02:29.556Z,57.17
2019-02-08T03:05:01.051Z,54.30
2019-02-08T03:07:32.573Z,61.50
2019-02-08T03:10:05.665Z,62.67
2019-02-08T03:12:37.084Z,58.63
2019-02-08T03:15:09.733Z,59.87
2019-02-08T03:17:41.198Z,49.53
2019-02-08T03:20:15.880Z,55.97
2019-02-08T03:22:47.752Z,51.17
2019-02-08T03:25:21.201Z,57.30
2019-02-08T03:27:52.865Z,60.57
2019-02-08T03:30:44.466Z,61.40
2019-02-08T03:33:15.931Z,47.70
2019-02-08T03:35:48.453Z,53.77
2019-02-08T03:38:20.025Z,51.00
2019-02-08T03:40:51.533Z,53.30
2019-02-08T03:43:23.027Z,60.53
2019-02-08T03:45:54.518Z,56.23
2019-02-08T03:48:26.016Z,52.40
2019-02-08T03:50:57.485Z,55.30
2019-02-08T03:53:29.127Z,49.90
2019-02-08T03:56:01.491Z,58.80
2019-02-08T03:58:33.013Z,59.43
2019-02-08T04:01:06.337Z,57.43
2019-02-08T04:03:38.111Z,54.37
2019-02-08T04:06:09.532Z,59.43
2019-02-08T04:08:41.051Z,59.20
2019-02-08T04:11:12.508Z,56.23
2019-02-08T04:13:43.930Z,55.53
2019-02-08T04:16:15.373Z,66.03
2019-02-08T04:18:46.833Z,52.07
2019-02-08T04:21:18.289Z,61.00
2019-02-08T04:23:49.739Z,66.00
2019-02-08T04:26:21.186Z,64.47
2019-02-08T04:28:52.618Z,57.50
2019-02-08T04:31:24.040Z,61.93
2019-02-08T04:33:55.621Z,61.80
2019-02-08T04:36:27.017Z,63.47
2019-02-08T04:38:58.466Z,63.17
2019-02-08T04:41:29.873Z,52.97
2019-02-08T04:44:01.356Z,70.07
2019-02-08T04:46:32.770Z,72.13
2019-02-08T04:49:04.171Z,61.00
2019-02-08T04:51:35.571Z,57.77
2019-02-08T04:54:07.073Z,57.23
2019-02-08T04:56:38.509Z,55.47
2019-02-08T04:59:10.027Z,59.53
2019-02-08T05:01:41.524Z,57.53
2019-02-08T05:04:12.939Z,58.67
2019-02-08T05:06:44.363Z,71.67
2019-02-08T05:09:15.937Z,60.23
2019-02-08T05:11:47.420Z,58.10
2019-02-08T05:14:18.838Z,68.57
2019-02-08T05:16:50.243Z,61.67
2019-02-08T05:19:21.659Z,54.63
2019-02-08T05:21:53.093Z,54.70
2019-02-08T05:24:24.600Z,54.13
2019-02-08T05:26:56.034Z,60.23
2019-02-08T05:29:27.472Z,56.53
2019-02-08T05:31:59.033Z,57.47
2019-02-08T05:34:30.591Z,57.05
2019-02-08T05:37:02.029Z,59.67
2019-02-08T05:39:33.562Z,70.03
2019-02-08T05:42:05.072Z,53.47
2019-02-08T05:44:36.553Z,57.77
2019-02-08T05:47:08.094Z,51.23
2019-02-08T05:49:39.619Z,44.93
2019-02-08T05:52:11.324Z,47.83
2019-02-08T05:54:42.858Z,56.93
2019-02-08T05:57:14.326Z,53.67
2019-02-08T05:59:45.769Z,52.60
2019-02-08T06:02:17.288Z,52.40
2019-02-08T06:04:48.971Z,58.87
2019-02-08T06:07:20.548Z,42.17
2019-02-08T06:09:52.045Z,37.70
2019-02-08T06:12:23.539Z,43.57
2019-02-08T06:14:54.996Z,42.47
2019-02-08T06:17:26.509Z,37.17
2019-02-08T06:19:57.938Z,29.73
2019-02-08T06:22:29.339Z,28.83
2019-02-08T06:25:03.952Z,23.10
2019-02-08T06:27:34.294Z,26.27
2019-02-08T06:30:07.240Z,27.63
2019-02-08T06:32:38.681Z,29.50
2019-02-08T06:35:10.319Z,25.10
2019-02-08T06:37:44.317Z,22.73
2019-02-08T06:40:17.753Z,21.13
2019-02-08T06:42:49.399Z,23.20
2019-02-08T06:45:22.043Z,19.23
2019-02-08T06:47:54.393Z,20.07
2019-02-08T06:50:26.052Z,18.83
2019-02-08T06:52:58.187Z,21.90
2019-02-08T06:55:29.721Z,25.13
2019-02-08T06:58:20.069Z,22.60
2019-02-08T07:01:14.659Z,21.13
2019-02-08T07:04:23.060Z,24.23
2019-02-08T07:07:12.250Z,19.00
2019-02-08T07:10:05.535Z,19.20
2019-02-08T07:12:47.415Z,16.77
2019-02-08T07:15:40.883Z,16.67
2019-02-08T07:18:18.674Z,19.97
2019-02-08T07:21:18.687Z,17.57
2019-02-08T07:24:01.365Z,19.23
2019-02-08T07:26:56.357Z,13.13
2019-02-08T07:30:01.804Z,17.00
2019-02-08T07:33:01.116Z,18.87
2019-02-08T07:36:06.457Z,19.67
2019-02-08T07:39:08.635Z,19.43
2019-02-08T07:41:52.278Z,15.30
2019-02-08T07:44:31.122Z,18.27
2019-02-08T07:47:20.372Z,13.93
2019-02-08T07:50:10.733Z,15.03
2019-02-08T07:53:00.722Z,11.25
2019-02-08T07:55:41.898Z,14.67
2019-02-08T07:58:38.385Z,13.53
2019-02-08T08:01:34.743Z,12.17
2019-02-08T08:04:23.999Z,16.60
2019-02-08T08:07:08.498Z,14.53
2019-02-08T08:10:02.819Z,12.87
2019-02-08T08:12:52.587Z,14.07
2019-02-08T08:15:34.427Z,11.53
2019-02-08T08:18:16.389Z,13.37
2019-02-08T08:21:06.612Z,12.40
2019-02-08T08:23:44.990Z,13.10
2019-02-08T08:26:39.068Z,16.30
2019-02-08T08:29:28.257Z,16.67
2019-02-08T08:32:14.018Z,13.80
2019-02-08T08:35:05.257Z,15.80
2019-02-08T08:38:35.760Z,13.93
2019-02-08T08:41:58.816Z,13.50
2019-02-08T08:45:07.023Z,11.38
2019-02-08T08:48:11.633Z,13.50
2019-02-08T08:51:02.782Z,13.57
2019-02-08T08:54:21.179Z,15.63
2019-02-08T08:57:29.476Z,14.17
2019-02-08T09:00:38.115Z,12.10
2019-02-08T09:03:44.305Z,11.37
2019-02-08T09:06:41.849Z,14.07
2019-02-08T09:10:02.953Z,12.23
2019-02-08T09:13:22.772Z,12.30
2019-02-08T09:16:45.844Z,12.47
2019-02-08T09:20:06.972Z,13.90
2019-02-08T09:23:14.853Z,10.25
2019-02-08T09:26:28.650Z,12.50
2019-02-08T09:29:54.855Z,11.77
2019-02-08T09:33:17.556Z,12.67
2019-02-08T09:36:47.970Z,12.98
2019-02-08T09:39:55.977Z,11.27
2019-02-08T09:43:06.545Z,12.70
2019-02-08T09:46:15.434Z,12.17
2019-02-08T09:49:27.269Z,14.98
2019-02-08T09:52:45.423Z,13.10
2019-02-08T09:55:57.835Z,11.93
2019-02-08T09:59:12.446Z,16.62
2019-02-08T10:02:23.052Z,11.38
2019-02-08T10:05:29.975Z,12.93
2019-02-08T10:08:36.804Z,11.55
2019-02-08T10:12:03.920Z,12.28
2019-02-08T10:15:27.324Z,9.53
2019-02-08T10:18:35.519Z,10.45
2019-02-08T10:21:53.422Z,11.47
2019-02-08T10:24:59.701Z,11.15
2019-02-08T10:28:18.166Z,13.98
2019-02-08T10:31:17.209Z,15.00
2019-02-08T10:34:35.634Z,11.28
2019-02-08T10:38:09.138Z,10.65
2019-02-08T10:41:30.864Z,13.00
2019-02-08T10:44:57.537Z,11.57
2019-02-08T10:48:17.948Z,10.08
2019-02-08T10:51:28.824Z,17.37
2019-02-08T10:54:42.582Z,8.63
2019-02-08T10:58:07.169Z,10.82
2019-02-08T11:01:13.942Z,13.03
2019-02-08T11:04:40.327Z,7.75
2019-02-08T11:07:58.803Z,9.88
2019-02-08T11:11:06.158Z,12.73
2019-02-08T11:14:24.258Z,11.63
2019-02-08T11:17:38.580Z,11.70
2019-02-08T11:20:10.380Z,7.75
2019-02-08T11:22:41.911Z,6.62
2019-02-08T11:25:13.647Z,9.48
2019-02-08T11:27:45.068Z,9.95
2019-02-08T11:30:17.503Z,12.47
2019-02-08T11:32:49.057Z,9.33
2019-02-08T11:35:21.450Z,11.20
2019-02-08T11:37:52.889Z,10.03
2019-02-08T11:40:27.048Z,15.20
2019-02-08T11:42:58.492Z,8.63
2019-02-08T11:45:30.148Z,9.10
2019-02-08T11:48:01.578Z,8.08
2019-02-08T11:50:32.985Z,9.60
2019-02-08T11:53:04.692Z,8.28
2019-02-08T11:55:36.424Z,7.92
2019-02-08T11:58:08.142Z,6.55
2019-02-08T12:00:44.639Z,7.12
2019-02-08T12:03:16.207Z,7.83
2019-02-08T12:05:48.681Z,7.15
2019-02-08T12:08:20.181Z,11.22
2019-02-08T12:10:52.225Z,14.03
2019-02-08T12:13:23.688Z,11.63
2019-02-08T12:15:55.168Z,8.48
2019-02-08T12:18:26.715Z,6.95
2019-02-08T12:20:58.130Z,9.10
2019-02-08T12:23:29.672Z,7.37
2019-02-08T12:26:01.101Z,7.03
2019-02-08T12:28:32.829Z,16.60
2019-02-08T12:31:04.523Z,5.17
2019-02-08T12:33:36.095Z,7.78
2019-02-08T12:36:07.674Z,6.97
2019-02-08T12:38:39.113Z,9.23
2019-02-08T12:41:10.525Z,6.50
2019-02-08T12:43:43.308Z,6.67
2019-02-08T12:46:14.773Z,5.97
2019-02-08T12:48:46.210Z,15.90
2019-02-08T12:51:17.601Z,6.00
2019-02-08T12:53:49.070Z,13.48
2019-02-08T12:56:20.483Z,6.92
2019-02-08T12:58:51.915Z,4.20
2019-02-08T13:01:23.370Z,6.58
2019-02-08T13:03:54.875Z,4.50
2019-02-08T13:06:26.328Z,4.75
2019-02-08T13:08:57.947Z,5.47
2019-02-08T13:11:29.340Z,4.83
2019-02-08T13:14:00.813Z,4.72
2019-02-08T13:16:32.246Z,8.15
2019-02-08T13:19:03.716Z,8.50
2019-02-08T13:21:35.203Z,6.47
2019-02-08T13:24:06.920Z,10.72
2019-02-08T13:26:38.303Z,8.93
2019-02-08T13:29:09.759Z,8.93
2019-02-08T13:31:41.190Z,7.30
2019-02-08T13:34:12.597Z,16.17
2019-02-08T13:36:43.960Z,13.13
2019-02-08T13:39:15.379Z,13.68
2019-02-08T13:41:46.976Z,12.90
2019-02-08T13:44:18.368Z,16.15
2019-02-08T13:46:49.779Z,15.95
2019-02-08T13:49:21.192Z,21.50
2019-02-08T13:51:52.600Z,15.63
2019-02-08T13:54:24.097Z,14.90
2019-02-08T13:57:00.508Z,14.40
2019-02-08T13:59:28.739Z,18.17
2019-02-08T14:02:00.247Z,14.33
2019-02-08T14:04:31.784Z,13.45
2019-02-08T14:07:03.228Z,16.25
2019-02-08T14:09:34.880Z,19.05
2019-02-08T14:12:15.361Z,16.35
2019-02-08T14:14:46.824Z,18.82
2019-02-08T14:17:18.271Z,16.02
2019-02-08T14:19:49.741Z,20.30
2019-02-08T14:22:21.164Z,16.32
2019-02-08T14:24:52.617Z,20.92
2019-02-08T14:27:24.104Z,22.37
2019-02-08T14:29:55.600Z,21.12
2019-02-08T14:32:27.051Z,20.60
2019-02-08T14:34:58.808Z,16.53
2019-02-08T14:37:30.368Z,13.80
2019-02-08T14:40:01.838Z,17.80
2019-02-08T14:42:34.323Z,19.33
2019-02-08T14:45:07.265Z,17.77
2019-02-08T14:47:38.660Z,19.60
2019-02-08T14:50:12.272Z,21.73
2019-02-08T14:52:44.051Z,23.70
2019-02-08T14:55:16.536Z,22.50
2019-02-08T14:57:48.221Z,22.53
2019-02-08T15:00:21.529Z,18.83
2019-02-08T15:02:53.031Z,15.93
2019-02-08T15:05:24.571Z,19.60
2019-02-08T15:07:57.625Z,18.92
2019-02-08T15:10:31.684Z,19.57
2019-02-08T15:13:03.236Z,18.70
2019-02-08T15:15:34.628Z,20.17
2019-02-08T15:18:06.642Z,18.47
2019-02-08T15:20:38.300Z,16.77
2019-02-08T15:23:09.699Z,21.27
2019-02-08T15:25:41.122Z,21.50
2019-02-08T15:28:12.638Z,23.80
2019-02-08T15:30:44.129Z,19.87
2019-02-08T15:33:15.679Z,24.00
2019-02-08T15:35:47.128Z,20.47
2019-02-08T15:38:18.572Z,18.60
2019-02-08T15:40:52.371Z,21.23
2019-02-08T15:43:24.494Z,23.57
2019-02-08T15:46:01.398Z,23.97
2019-02-08T15:48:32.971Z,18.03
2019-02-08T15:51:04.710Z,23.00
2019-02-08T15:53:36.166Z,22.97
2019-02-08T15:56:13.642Z,20.23
2019-02-08T15:58:45.018Z,23.60
2019-02-08T16:01:16.529Z,24.87
2019-02-08T16:03:47.920Z,24.47
2019-02-08T16:06:19.728Z,23.57
2019-02-08T16:08:51.176Z,23.97
2019-02-08T16:11:23.155Z,22.47
2019-02-08T16:13:54.631Z,22.13
2019-02-08T16:16:26.191Z,23.47
2019-02-08T16:18:57.762Z,22.23
2019-02-08T16:21:29.520Z,28.97
2019-02-08T16:24:01.059Z,23.40
2019-02-08T16:26:32.776Z,31.13
2019-02-08T16:29:04.694Z,31.67
2019-02-08T16:31:36.650Z,39.33
2019-02-08T16:34:08.208Z,41.60
2019-02-08T16:36:39.626Z,38.47
2019-02-08T16:39:11.549Z,40.97
2019-02-08T16:41:42.968Z,45.53
2019-02-08T16:44:14.488Z,39.13
2019-02-08T16:46:45.952Z,37.60
2019-02-08T16:49:17.368Z,44.88
2019-02-08T16:51:48.801Z,44.27
2019-02-08T16:54:20.215Z,40.10
2019-02-08T16:56:51.744Z,42.53
2019-02-08T16:59:23.288Z,43.30
2019-02-08T17:01:54.762Z,44.47
2019-02-08T17:04:26.173Z,46.90
2019-02-08T17:06:57.650Z,48.68
2019-02-08T17:09:29.084Z,51.63
2019-02-08T17:12:00.550Z,49.20
2019-02-08T17:14:33.176Z,50.43
2019-02-08T17:17:04.763Z,45.70
2019-02-08T17:19:36.174Z,46.57
2019-02-08T17:22:07.759Z,40.77
2019-02-08T17:24:39.223Z,44.33
2019-02-08T17:27:11.292Z,35.83
2019-02-08T17:29:42.723Z,39.03
2019-02-08T17:32:14.216Z,39.43
2019-02-08T17:34:45.668Z,40.93
2019-02-08T17:37:17.123Z,43.03
2019-02-08T17:39:48.580Z,46.42
2019-02-08T17:42:20.006Z,45.97
2019-02-08T17:44:51.665Z,41.03
2019-02-08T17:47:23.212Z,39.57
2019-02-08T17:49:54.643Z,43.07
2019-02-08T17:52:26.131Z,44.77
2019-02-08T17:54:57.573Z,44.97
2019-02-08T17:57:29.010Z,46.50
2019-02-08T18:00:00.456Z,41.63
2019-02-08T18:02:31.972Z,46.77
2019-02-08T18:05:03.372Z,48.33
2019-02-08T18:07:34.803Z,49.13
2019-02-08T18:10:07.362Z,48.27
2019-02-08T18:12:38.799Z,45.50
2019-02-08T18:15:12.041Z,43.03
2019-02-08T18:17:43.467Z,39.70
2019-02-08T18:20:18.535Z,42.17
2019-02-08T18:22:49.993Z,40.63
2019-02-08T18:25:21.680Z,42.57
2019-02-08T18:27:53.061Z,44.20
2019-02-08T18:30:24.678Z,47.53
2019-02-08T18:32:56.862Z,38.93
2019-02-08T18:35:28.280Z,37.77
2019-02-08T18:37:59.812Z,43.50
2019-02-08T18:40:31.262Z,40.43
2019-02-08T18:43:02.857Z,46.30
2019-02-08T18:45:34.527Z,41.07
2019-02-08T18:48:06.169Z,37.57
2019-02-08T18:50:40.241Z,41.67
2019-02-08T18:53:11.768Z,40.00
2019-02-08T18:55:43.265Z,45.17
2019-02-08T18:58:19.018Z,47.10
2019-02-08T19:00:49.114Z,49.43
2019-02-08T19:03:21.115Z,44.70
2019-02-08T19:05:52.600Z,39.33
2019-02-08T19:08:24.008Z,40.83
2019-02-08T19:10:55.404Z,35.70
2019-02-08T19:13:26.797Z,44.47
2019-02-08T19:15:58.184Z,40.50
2019-02-08T19:18:29.665Z,45.48
2019-02-08T19:21:01.135Z,45.33
2019-02-08T19:23:32.595Z,42.17
2019-02-08T19:26:04.136Z,39.00
2019-02-08T19:28:35.580Z,42.47
2019-02-08T19:31:07.066Z,396.57
2019-02-08T19:33:38.541Z,190.37
2019-02-08T19:36:10.013Z,62.70
2019-02-08T19:38:41.440Z,49.00
2019-02-08T19:41:12.823Z,49.30
2019-02-08T19:43:44.224Z,47.87
2019-02-08T19:46:16.046Z,51.27
2019-02-08T19:48:47.575Z,47.57
2019-02-08T19:51:19.107Z,51.40
2019-02-08T19:53:50.606Z,48.77
2019-02-08T19:56:22.153Z,45.53
2019-02-08T19:58:53.592Z,53.03
2019-02-08T20:01:25.110Z,54.13
2019-02-08T20:03:56.592Z,52.97
2019-02-08T20:06:28.088Z,52.10
2019-02-08T20:08:59.574Z,48.63
2019-02-08T20:11:31.030Z,45.57
2019-02-08T20:14:02.586Z,47.33
2019-02-08T20:16:34.096Z,50.70
2019-02-08T20:19:05.607Z,55.33
2019-02-08T20:21:37.025Z,56.63
2019-02-08T20:24:08.412Z,52.97
2019-02-08T20:26:39.791Z,53.65
2019-02-08T20:29:11.196Z,52.67
2019-02-08T20:31:42.584Z,61.33
2019-02-08T20:34:13.988Z,52.53
2019-02-08T20:36:45.428Z,51.47
2019-02-08T20:39:17.057Z,47.63
2019-02-08T20:41:48.519Z,45.90
2019-02-08T20:44:19.923Z,53.13
2019-02-08T20:46:51.318Z,54.93
2019-02-08T20:49:22.763Z,50.43
2019-02-08T20:51:54.220Z,57.33
2019-02-08T20:54:25.705Z,58.37
2019-02-08T20:56:58.933Z,62.00
2019-02-08T20:59:30.447Z,61.80
2019-02-08T21:02:01.898Z,56.80
2019-02-08T21:04:34.269Z,56.13
2019-02-08T21:07:06.059Z,54.13
2019-02-08T21:09:37.596Z,47.93
2019-02-08T21:12:09.101Z,48.70
2019-02-08T21:14:40.770Z,52.10
2019-02-08T21:17:12.258Z,48.97
2019-02-08T21:19:43.687Z,49.43
2019-02-08T21:22:15.139Z,44.60
2019-02-08T21:24:46.825Z,48.47
2019-02-08T21:27:19.128Z,44.60
2019-02-08T21:29:52.085Z,54.90
2019-02-08T21:32:23.696Z,56.77
2019-02-08T21:34:55.180Z,60.37
2019-02-08T21:37:26.582Z,55.40
2019-02-08T21:39:58.103Z,58.00
2019-02-08T21:42:29.495Z,66.30
2019-02-08T21:45:00.892Z,65.03
2019-02-08T21:47:32.295Z,63.33
2019-02-08T21:50:03.852Z,72.58
2019-02-08T21:52:35.330Z,71.43
2019-02-08T21:55:08.037Z,66.00
2019-02-08T21:57:39.493Z,64.27
2019-02-08T22:00:22.236Z,64.80
2019-02-08T22:02:53.702Z,68.47
2019-02-08T22:05:52.180Z,74.82
2019-02-08T22:08:23.673Z,70.73
2019-02-08T22:10:55.185Z,83.60
2019-02-08T22:13:26.562Z,68.67
2019-02-08T22:15:58.034Z,73.70
2019-02-08T22:18:29.457Z,70.83
2019-02-08T22:21:00.864Z,72.37
2019-02-08T22:23:32.284Z,72.67
2019-02-08T22:26:03.675Z,64.43
2019-02-08T22:28:35.094Z,74.33
2019-02-08T22:31:06.768Z,72.10
2019-02-08T22:33:38.208Z,74.70
2019-02-08T22:36:09.616Z,78.43
2019-02-08T22:38:41.140Z,79.07
2019-02-08T22:41:12.534Z,70.32
2019-02-08T22:43:43.967Z,74.50
2019-02-08T22:46:15.490Z,72.03
2019-02-08T22:48:46.897Z,73.07
2019-02-08T22:51:18.349Z,71.90
2019-02-08T22:53:50.087Z,72.03
2019-02-08T22:56:21.501Z,65.92
2019-02-08T22:58:53.921Z,71.60
2019-02-08T23:01:34.972Z,71.83
2019-02-08T23:04:10.613Z,76.03
2019-02-08T23:06:44.836Z,71.90
2019-02-08T23:09:20.568Z,71.50
2019-02-08T23:11:52.188Z,69.10
2019-02-08T23:14:23.663Z,73.77
2019-02-08T23:16:55.112Z,74.03
2019-02-08T23:19:26.777Z,78.53
2019-02-08T23:21:58.233Z,80.97
2019-02-08T23:24:29.650Z,77.30
2019-02-08T23:27:01.110Z,69.87
2019-02-08T23:29:32.476Z,71.30
2019-02-08T23:32:03.879Z,80.60
2019-02-08T23:34:35.270Z,78.63
2019-02-08T23:37:06.732Z,75.33
2019-02-08T23:39:38.137Z,66.20
2019-02-08T23:42:09.638Z,73.07
2019-02-08T23:44:41.054Z,67.90
2019-02-08T23:47:12.452Z,67.30
2019-02-08T23:49:43.896Z,65.03
2019-02-08T23:52:15.359Z,68.40
2019-02-08T23:54:47.103Z,67.67
2019-02-08T23:57:18.498Z,58.03
2019-02-08T23:59:49.873Z,53.37
